sensor_id;sensor_type;location;lat;lon;timestamp;P1;durP1;ratioP1;P2;durP2;ratioP2
70667;SDS011;58242;51.250;-1.118;2022-11-20T00:00:00;4.93;;;4.50;;
70667;SDS011;58242;51.250;-1.118;2022-11-20T00:02:25;4.70;;;4.30;;
70667;SDS011;58242;51.250;-1.118;2022-11-20T00:04:51;4.43;;;3.97;;
70667;SDS011;58242;51.250;-1.118;2022-11-20T00:07:16;3.92;;;3.60;;
70667;SDS011;58242;51.250;-1.118;2022-11-20T00:09:42;5.22;;;3.72;;
70667;SDS011;58242;51.250;-1.118;2022-11-20T00:12:07;4.03;;;3.63;;
70667;SDS011;58242;51.250;-1.118;2022-11-20T00:14:32;3.78;;;3.47;;
70667;SDS011;58242;51.250;-1.118;2022-11-20T00:16:58;2.78;;;2.65;;
70667;SDS011;58242;51.250;-1.118;2022-11-20T00:19:23;3.15;;;2.95;;
70667;SDS011;58242;51.250;-1.118;2022-11-20T00:21:48;2.97;;;2.80;;
70667;SDS011;58242;51.250;-1.118;2022-11-20T00:24:16;2.90;;;2.70;;
70667;SDS011;58242;51.250;-1.118;2022-11-20T00:26:42;2.50;;;2.40;;
70667;SDS011;58242;51.250;-1.118;2022-11-20T00:29:08;4.05;;;2.70;;
70667;SDS011;58242;51.250;-1.118;2022-11-20T00:31:35;2.35;;;2.25;;
70667;SDS011;58242;51.250;-1.118;2022-11-20T00:34:00;2.40;;;2.30;;
70667;SDS011;58242;51.250;-1.118;2022-11-20T00:36:26;2.55;;;2.35;;
70667;SDS011;58242;51.250;-1.118;2022-11-20T00:38:56;2.20;;;2.10;;
70667;SDS011;58242;51.250;-1.118;2022-11-20T00:41:23;2.30;;;2.20;;
70667;SDS011;58242;51.250;-1.118;2022-11-20T00:43:50;2.17;;;2.03;;
70667;SDS011;58242;51.250;-1.118;2022-11-20T00:46:17;2.30;;;2.20;;
70667;SDS011;58242;51.250;-1.118;2022-11-20T00:48:44;2.60;;;2.45;;
70667;SDS011;58242;51.250;-1.118;2022-11-20T00:51:14;2.30;;;2.08;;
70667;SDS011;58242;51.250;-1.118;2022-11-20T00:53:41;2.22;;;2.13;;
70667;SDS011;58242;51.250;-1.118;2022-11-20T00:56:07;2.10;;;2.05;;
70667;SDS011;58242;51.250;-1.118;2022-11-20T00:58:36;2.25;;;2.15;;
70667;SDS011;58242;51.250;-1.118;2022-11-20T01:01:05;2.40;;;2.30;;
70667;SDS011;58242;51.250;-1.118;2022-11-20T01:03:32;2.28;;;2.17;;
70667;SDS011;58242;51.250;-1.118;2022-11-20T01:06:06;2.28;;;2.17;;
70667;SDS011;58242;51.250;-1.118;2022-11-20T01:08:35;2.60;;;2.50;;
70667;SDS011;58242;51.250;-1.118;2022-11-20T01:11:01;2.20;;;2.10;;
70667;SDS011;58242;51.250;-1.118;2022-11-20T01:13:28;2.75;;;2.55;;
70667;SDS011;58242;51.250;-1.118;2022-11-20T01:16:23;2.38;;;2.28;;
70667;SDS011;58242;51.250;-1.118;2022-11-20T01:18:51;2.30;;;2.20;;
70667;SDS011;58242;51.250;-1.118;2022-11-20T01:21:22;2.50;;;2.40;;
70667;SDS011;58242;51.250;-1.118;2022-11-20T01:23:49;2.28;;;2.25;;
70667;SDS011;58242;51.250;-1.118;2022-11-20T01:26:16;2.65;;;2.50;;
70667;SDS011;58242;51.250;-1.118;2022-11-20T01:28:43;2.58;;;2.47;;
70667;SDS011;58242;51.250;-1.118;2022-11-20T01:33:48;2.40;;;2.30;;
70667;SDS011;58242;51.250;-1.118;2022-11-20T01:36:15;2.10;;;2.10;;
70667;SDS011;58242;51.250;-1.118;2022-11-20T01:38:42;2.30;;;2.20;;
70667;SDS011;58242;51.250;-1.118;2022-11-20T01:41:07;2.10;;;2.10;;
70667;SDS011;58242;51.250;-1.118;2022-11-20T01:43:34;2.20;;;2.10;;
70667;SDS011;58242;51.250;-1.118;2022-11-20T01:53:54;2.25;;;2.17;;
70667;SDS011;58242;51.250;-1.118;2022-11-20T01:56:22;3.47;;;2.30;;
70667;SDS011;58242;51.250;-1.118;2022-11-20T01:58:50;2.47;;;2.38;;
70667;SDS011;58242;51.250;-1.118;2022-11-20T02:01:21;2.35;;;2.25;;
70667;SDS011;58242;51.250;-1.118;2022-11-20T02:03:46;2.08;;;2.08;;
70667;SDS011;58242;51.250;-1.118;2022-11-20T02:06:25;2.47;;;2.40;;
70667;SDS011;58242;51.250;-1.118;2022-11-20T02:08:54;2.10;;;2.10;;
70667;SDS011;58242;51.250;-1.118;2022-11-20T02:11:20;2.60;;;2.40;;
70667;SDS011;58242;51.250;-1.118;2022-11-20T02:13:46;2.20;;;2.20;;
70667;SDS011;58242;51.250;-1.118;2022-11-20T02:16:14;2.30;;;2.30;;
70667;SDS011;58242;51.250;-1.118;2022-11-20T02:18:39;2.50;;;2.38;;
70667;SDS011;58242;51.250;-1.118;2022-11-20T02:24:13;2.50;;;2.40;;
70667;SDS011;58242;51.250;-1.118;2022-11-20T02:26:41;2.55;;;2.45;;
70667;SDS011;58242;51.250;-1.118;2022-11-20T02:29:07;2.47;;;2.38;;
70667;SDS011;58242;51.250;-1.118;2022-11-20T02:31:37;2.60;;;2.50;;
70667;SDS011;58242;51.250;-1.118;2022-11-20T02:34:04;2.47;;;2.38;;
70667;SDS011;58242;51.250;-1.118;2022-11-20T02:36:30;2.53;;;2.42;;
70667;SDS011;58242;51.250;-1.118;2022-11-20T02:38:57;2.63;;;2.53;;
70667;SDS011;58242;51.250;-1.118;2022-11-20T02:41:30;2.65;;;2.45;;
70667;SDS011;58242;51.250;-1.118;2022-11-20T02:43:59;2.50;;;2.40;;
70667;SDS011;58242;51.250;-1.118;2022-11-20T02:46:25;2.67;;;2.58;;
70667;SDS011;58242;51.250;-1.118;2022-11-20T02:48:50;2.50;;;2.40;;
70667;SDS011;58242;51.250;-1.118;2022-11-20T02:51:15;2.55;;;2.45;;
70667;SDS011;58242;51.250;-1.118;2022-11-20T02:53:41;2.95;;;2.75;;
70667;SDS011;58242;51.250;-1.118;2022-11-20T02:56:06;2.53;;;2.42;;
70667;SDS011;58242;51.250;-1.118;2022-11-20T02:58:32;2.65;;;2.55;;
70667;SDS011;58242;51.250;-1.118;2022-11-20T03:00:57;2.60;;;2.50;;
70667;SDS011;58242;51.250;-1.118;2022-11-20T03:03:22;2.45;;;2.35;;
70667;SDS011;58242;51.250;-1.118;2022-11-20T03:05:48;2.50;;;2.40;;
70667;SDS011;58242;51.250;-1.118;2022-11-20T03:08:13;2.30;;;2.20;;
70667;SDS011;58242;51.250;-1.118;2022-11-20T03:10:38;2.42;;;2.33;;
70667;SDS011;58242;51.250;-1.118;2022-11-20T03:13:04;2.33;;;2.22;;
70667;SDS011;58242;51.250;-1.118;2022-11-20T03:15:29;2.55;;;2.40;;
70667;SDS011;58242;51.250;-1.118;2022-11-20T03:17:54;2.40;;;2.30;;
70667;SDS011;58242;51.250;-1.118;2022-11-20T03:20:20;2.40;;;2.30;;
70667;SDS011;58242;51.250;-1.118;2022-11-20T03:22:46;2.25;;;2.15;;
70667;SDS011;58242;51.250;-1.118;2022-11-20T03:25:11;2.97;;;2.80;;
70667;SDS011;58242;51.250;-1.118;2022-11-20T03:27:37;2.53;;;2.42;;
70667;SDS011;58242;51.250;-1.118;2022-11-20T03:30:02;2.50;;;2.40;;
70667;SDS011;58242;51.250;-1.118;2022-11-20T03:32:28;2.50;;;2.35;;
70667;SDS011;58242;51.250;-1.118;2022-11-20T03:34:53;2.78;;;2.50;;
70667;SDS011;58242;51.250;-1.118;2022-11-20T03:37:19;2.40;;;2.40;;
70667;SDS011;58242;51.250;-1.118;2022-11-20T03:39:44;2.40;;;2.30;;
70667;SDS011;58242;51.250;-1.118;2022-11-20T03:42:09;2.30;;;2.20;;
70667;SDS011;58242;51.250;-1.118;2022-11-20T03:44:53;2.63;;;2.53;;
70667;SDS011;58242;51.250;-1.118;2022-11-20T03:47:18;2.63;;;2.53;;
70667;SDS011;58242;51.250;-1.118;2022-11-20T03:49:44;2.50;;;2.40;;
70667;SDS011;58242;51.250;-1.118;2022-11-20T03:52:09;2.50;;;2.40;;
70667;SDS011;58242;51.250;-1.118;2022-11-20T03:54:34;2.80;;;2.60;;
70667;SDS011;58242;51.250;-1.118;2022-11-20T03:57:00;2.45;;;2.35;;
70667;SDS011;58242;51.250;-1.118;2022-11-20T03:59:25;2.50;;;2.40;;
70667;SDS011;58242;51.250;-1.118;2022-11-20T04:01:50;2.67;;;2.58;;
70667;SDS011;58242;51.250;-1.118;2022-11-20T04:04:15;2.88;;;2.67;;
70667;SDS011;58242;51.250;-1.118;2022-11-20T04:06:41;2.83;;;2.70;;
70667;SDS011;58242;51.250;-1.118;2022-11-20T04:09:06;2.85;;;2.75;;
70667;SDS011;58242;51.250;-1.118;2022-11-20T04:11:32;2.72;;;2.60;;
70667;SDS011;58242;51.250;-1.118;2022-11-20T04:14:00;3.00;;;2.70;;
70667;SDS011;58242;51.250;-1.118;2022-11-20T04:16:29;2.60;;;2.50;;
70667;SDS011;58242;51.250;-1.118;2022-11-20T04:18:57;2.70;;;2.60;;
70667;SDS011;58242;51.250;-1.118;2022-11-20T04:21:24;2.83;;;2.72;;
70667;SDS011;58242;51.250;-1.118;2022-11-20T04:23:51;2.63;;;2.53;;
70667;SDS011;58242;51.250;-1.118;2022-11-20T04:26:20;2.58;;;2.47;;
70667;SDS011;58242;51.250;-1.118;2022-11-20T04:28:47;2.50;;;2.40;;
70667;SDS011;58242;51.250;-1.118;2022-11-20T04:31:13;2.30;;;2.30;;
70667;SDS011;58242;51.250;-1.118;2022-11-20T04:33:39;2.70;;;2.50;;
70667;SDS011;58242;51.250;-1.118;2022-11-20T04:36:06;2.88;;;2.78;;
70667;SDS011;58242;51.250;-1.118;2022-11-20T04:38:35;2.70;;;2.60;;
70667;SDS011;58242;51.250;-1.118;2022-11-20T04:41:02;2.72;;;2.63;;
70667;SDS011;58242;51.250;-1.118;2022-11-20T04:43:29;2.80;;;2.60;;
70667;SDS011;58242;51.250;-1.118;2022-11-20T04:45:55;2.80;;;2.60;;
70667;SDS011;58242;51.250;-1.118;2022-11-20T04:48:22;2.63;;;2.45;;
70667;SDS011;58242;51.250;-1.118;2022-11-20T04:50:48;2.60;;;2.40;;
70667;SDS011;58242;51.250;-1.118;2022-11-20T04:53:13;2.47;;;2.40;;
70667;SDS011;58242;51.250;-1.118;2022-11-20T04:55:39;2.50;;;2.40;;
70667;SDS011;58242;51.250;-1.118;2022-11-20T04:58:04;2.10;;;2.10;;
70667;SDS011;58242;51.250;-1.118;2022-11-20T05:00:30;2.45;;;2.45;;
70667;SDS011;58242;51.250;-1.118;2022-11-20T05:02:55;2.50;;;2.40;;
70667;SDS011;58242;51.250;-1.118;2022-11-20T05:05:20;2.30;;;2.30;;
70667;SDS011;58242;51.250;-1.118;2022-11-20T05:07:45;2.20;;;2.20;;
70667;SDS011;58242;51.250;-1.118;2022-11-20T05:10:11;2.20;;;2.20;;
70667;SDS011;58242;51.250;-1.118;2022-11-20T05:12:36;2.45;;;2.38;;
70667;SDS011;58242;51.250;-1.118;2022-11-20T05:15:01;2.40;;;2.30;;
70667;SDS011;58242;51.250;-1.118;2022-11-20T05:17:27;2.20;;;2.20;;
70667;SDS011;58242;51.250;-1.118;2022-11-20T05:19:52;2.35;;;2.25;;
70667;SDS011;58242;51.250;-1.118;2022-11-20T05:22:17;2.20;;;2.20;;
70667;SDS011;58242;51.250;-1.118;2022-11-20T05:24:43;2.33;;;2.33;;
70667;SDS011;58242;51.250;-1.118;2022-11-20T05:27:08;2.30;;;2.30;;
70667;SDS011;58242;51.250;-1.118;2022-11-20T05:29:34;2.40;;;2.40;;
70667;SDS011;58242;51.250;-1.118;2022-11-20T05:31:59;2.08;;;2.08;;
70667;SDS011;58242;51.250;-1.118;2022-11-20T05:34:24;2.20;;;2.15;;
70667;SDS011;58242;51.250;-1.118;2022-11-20T05:36:50;2.20;;;2.20;;
70667;SDS011;58242;51.250;-1.118;2022-11-20T05:39:15;2.20;;;2.20;;
70667;SDS011;58242;51.250;-1.118;2022-11-20T05:41:40;2.10;;;2.10;;
70667;SDS011;58242;51.250;-1.118;2022-11-20T05:44:06;2.00;;;2.00;;
70667;SDS011;58242;51.250;-1.118;2022-11-20T05:46:31;2.10;;;2.10;;
70667;SDS011;58242;51.250;-1.118;2022-11-20T05:48:57;2.40;;;2.30;;
70667;SDS011;58242;51.250;-1.118;2022-11-20T05:51:23;2.05;;;2.05;;
70667;SDS011;58242;51.250;-1.118;2022-11-20T05:53:49;2.33;;;2.33;;
70667;SDS011;58242;51.250;-1.118;2022-11-20T05:56:18;2.30;;;2.20;;
70667;SDS011;58242;51.250;-1.118;2022-11-20T05:58:45;2.10;;;2.10;;
70667;SDS011;58242;51.250;-1.118;2022-11-20T06:03:37;2.28;;;2.28;;
70667;SDS011;58242;51.250;-1.118;2022-11-20T06:06:03;2.00;;;2.00;;
70667;SDS011;58242;51.250;-1.118;2022-11-20T06:08:30;2.13;;;2.13;;
70667;SDS011;58242;51.250;-1.118;2022-11-20T06:10:56;2.17;;;2.17;;
70667;SDS011;58242;51.250;-1.118;2022-11-20T06:13:21;2.03;;;2.03;;
70667;SDS011;58242;51.250;-1.118;2022-11-20T06:15:50;2.15;;;2.15;;
70667;SDS011;58242;51.250;-1.118;2022-11-20T06:18:17;2.10;;;2.10;;
70667;SDS011;58242;51.250;-1.118;2022-11-20T06:20:42;2.00;;;2.00;;
70667;SDS011;58242;51.250;-1.118;2022-11-20T06:23:07;2.10;;;2.10;;
70667;SDS011;58242;51.250;-1.118;2022-11-20T06:25:32;2.10;;;2.10;;
70667;SDS011;58242;51.250;-1.118;2022-11-20T06:27:58;2.22;;;2.13;;
70667;SDS011;58242;51.250;-1.118;2022-11-20T06:30:23;1.95;;;1.95;;
70667;SDS011;58242;51.250;-1.118;2022-11-20T06:32:48;2.20;;;2.20;;
70667;SDS011;58242;51.250;-1.118;2022-11-20T06:35:14;2.28;;;2.17;;
70667;SDS011;58242;51.250;-1.118;2022-11-20T06:37:39;2.20;;;2.13;;
70667;SDS011;58242;51.250;-1.118;2022-11-20T06:40:04;2.00;;;2.00;;
70667;SDS011;58242;51.250;-1.118;2022-11-20T06:42:30;2.28;;;2.17;;
70667;SDS011;58242;51.250;-1.118;2022-11-20T06:44:57;2.13;;;2.10;;
70667;SDS011;58242;51.250;-1.118;2022-11-20T06:47:22;2.22;;;2.20;;
70667;SDS011;58242;51.250;-1.118;2022-11-20T06:49:47;2.25;;;2.25;;
70667;SDS011;58242;51.250;-1.118;2022-11-20T06:52:12;2.10;;;2.10;;
70667;SDS011;58242;51.250;-1.118;2022-11-20T06:54:38;2.05;;;2.05;;
70667;SDS011;58242;51.250;-1.118;2022-11-20T06:57:03;2.10;;;2.10;;
70667;SDS011;58242;51.250;-1.118;2022-11-20T06:59:28;1.88;;;1.88;;
70667;SDS011;58242;51.250;-1.118;2022-11-20T07:01:54;1.90;;;1.90;;
70667;SDS011;58242;51.250;-1.118;2022-11-20T07:04:19;2.00;;;2.00;;
70667;SDS011;58242;51.250;-1.118;2022-11-20T07:06:44;2.20;;;2.10;;
70667;SDS011;58242;51.250;-1.118;2022-11-20T07:09:09;2.20;;;2.10;;
70667;SDS011;58242;51.250;-1.118;2022-11-20T07:11:35;2.28;;;2.20;;
70667;SDS011;58242;51.250;-1.118;2022-11-20T07:14:00;2.20;;;2.20;;
70667;SDS011;58242;51.250;-1.118;2022-11-20T07:16:25;2.20;;;2.20;;
70667;SDS011;58242;51.250;-1.118;2022-11-20T07:18:51;2.17;;;2.17;;
70667;SDS011;58242;51.250;-1.118;2022-11-20T07:21:16;2.20;;;2.10;;
70667;SDS011;58242;51.250;-1.118;2022-11-20T07:23:42;2.00;;;2.00;;
70667;SDS011;58242;51.250;-1.118;2022-11-20T07:26:08;2.40;;;2.30;;
70667;SDS011;58242;51.250;-1.118;2022-11-20T07:28:35;3.30;;;2.28;;
70667;SDS011;58242;51.250;-1.118;2022-11-20T07:31:00;2.50;;;2.40;;
70667;SDS011;58242;51.250;-1.118;2022-11-20T07:33:26;2.50;;;2.30;;
70667;SDS011;58242;51.250;-1.118;2022-11-20T07:35:51;2.50;;;2.40;;
70667;SDS011;58242;51.250;-1.118;2022-11-20T07:38:16;2.25;;;2.22;;
70667;SDS011;58242;51.250;-1.118;2022-11-20T07:40:41;2.40;;;2.30;;
70667;SDS011;58242;51.250;-1.118;2022-11-20T07:43:07;2.67;;;2.50;;
70667;SDS011;58242;51.250;-1.118;2022-11-20T07:45:32;2.60;;;2.40;;
70667;SDS011;58242;51.250;-1.118;2022-11-20T07:47:58;2.40;;;2.30;;
70667;SDS011;58242;51.250;-1.118;2022-11-20T07:50:23;2.58;;;2.38;;
70667;SDS011;58242;51.250;-1.118;2022-11-20T07:52:49;2.45;;;2.28;;
70667;SDS011;58242;51.250;-1.118;2022-11-20T07:55:14;2.17;;;2.00;;
70667;SDS011;58242;51.250;-1.118;2022-11-20T07:57:40;2.25;;;2.15;;
70667;SDS011;58242;51.250;-1.118;2022-11-20T08:00:06;2.55;;;2.40;;
70667;SDS011;58242;51.250;-1.118;2022-11-20T08:02:39;3.92;;;2.58;;
70667;SDS011;58242;51.250;-1.118;2022-11-20T08:05:05;2.38;;;2.17;;
70667;SDS011;58242;51.250;-1.118;2022-11-20T08:07:38;2.80;;;2.50;;
70667;SDS011;58242;51.250;-1.118;2022-11-20T08:10:05;4.35;;;3.95;;
70667;SDS011;58242;51.250;-1.118;2022-11-20T08:12:32;2.92;;;2.83;;
70667;SDS011;58242;51.250;-1.118;2022-11-20T08:15:16;3.58;;;3.22;;
70667;SDS011;58242;51.250;-1.118;2022-11-20T08:17:41;3.03;;;2.83;;
70667;SDS011;58242;51.250;-1.118;2022-11-20T08:20:06;3.25;;;3.03;;
70667;SDS011;58242;51.250;-1.118;2022-11-20T08:22:32;3.78;;;3.17;;
70667;SDS011;58242;51.250;-1.118;2022-11-20T08:24:57;2.80;;;2.63;;
70667;SDS011;58242;51.250;-1.118;2022-11-20T08:27:23;2.60;;;2.40;;
70667;SDS011;58242;51.250;-1.118;2022-11-20T08:29:48;3.13;;;2.42;;
70667;SDS011;58242;51.250;-1.118;2022-11-20T08:32:13;2.80;;;2.60;;
70667;SDS011;58242;51.250;-1.118;2022-11-20T08:34:39;7.65;;;2.97;;
70667;SDS011;58242;51.250;-1.118;2022-11-20T08:37:04;3.17;;;2.88;;
70667;SDS011;58242;51.250;-1.118;2022-11-20T08:39:29;3.35;;;2.50;;
70667;SDS011;58242;51.250;-1.118;2022-11-20T08:41:55;6.40;;;3.08;;
70667;SDS011;58242;51.250;-1.118;2022-11-20T08:44:20;6.13;;;3.13;;
70667;SDS011;58242;51.250;-1.118;2022-11-20T08:46:45;4.50;;;2.75;;
70667;SDS011;58242;51.250;-1.118;2022-11-20T08:49:12;4.47;;;3.00;;
70667;SDS011;58242;51.250;-1.118;2022-11-20T08:51:38;4.43;;;2.88;;
70667;SDS011;58242;51.250;-1.118;2022-11-20T08:54:04;4.70;;;2.55;;
70667;SDS011;58242;51.250;-1.118;2022-11-20T08:56:31;3.20;;;2.90;;
70667;SDS011;58242;51.250;-1.118;2022-11-20T08:58:56;4.32;;;2.67;;
70667;SDS011;58242;51.250;-1.118;2022-11-20T09:01:22;3.13;;;2.72;;
70667;SDS011;58242;51.250;-1.118;2022-11-20T09:03:48;5.53;;;2.78;;
70667;SDS011;58242;51.250;-1.118;2022-11-20T09:06:14;4.40;;;2.95;;
70667;SDS011;58242;51.250;-1.118;2022-11-20T09:08:40;4.85;;;3.13;;
70667;SDS011;58242;51.250;-1.118;2022-11-20T09:11:05;5.70;;;3.00;;
70667;SDS011;58242;51.250;-1.118;2022-11-20T09:13:31;5.03;;;2.70;;
70667;SDS011;58242;51.250;-1.118;2022-11-20T09:15:59;4.57;;;3.03;;
70667;SDS011;58242;51.250;-1.118;2022-11-20T09:18:27;3.30;;;2.83;;
70667;SDS011;58242;51.250;-1.118;2022-11-20T09:21:00;10.15;;;3.38;;
70667;SDS011;58242;51.250;-1.118;2022-11-20T09:23:30;4.40;;;3.40;;
70667;SDS011;58242;51.250;-1.118;2022-11-20T09:28:25;5.95;;;3.00;;
70667;SDS011;58242;51.250;-1.118;2022-11-20T09:30:51;3.05;;;2.72;;
70667;SDS011;58242;51.250;-1.118;2022-11-20T09:33:16;3.40;;;2.83;;
70667;SDS011;58242;51.250;-1.118;2022-11-20T09:35:42;4.50;;;3.00;;
70667;SDS011;58242;51.250;-1.118;2022-11-20T09:38:08;4.70;;;2.97;;
70667;SDS011;58242;51.250;-1.118;2022-11-20T09:40:36;6.03;;;3.10;;
70667;SDS011;58242;51.250;-1.118;2022-11-20T09:48:52;7.40;;;3.33;;
70667;SDS011;58242;51.250;-1.118;2022-11-20T09:54:17;8.00;;;3.40;;
70667;SDS011;58242;51.250;-1.118;2022-11-20T09:56:49;6.22;;;3.90;;
70667;SDS011;58242;51.250;-1.118;2022-11-20T10:01:56;6.80;;;4.07;;
70667;SDS011;58242;51.250;-1.118;2022-11-20T10:04:24;8.63;;;3.85;;
70667;SDS011;58242;51.250;-1.118;2022-11-20T10:12:09;6.15;;;4.28;;
70667;SDS011;58242;51.250;-1.118;2022-11-20T10:17:28;9.88;;;4.60;;
70667;SDS011;58242;51.250;-1.118;2022-11-20T10:20:32;4.38;;;3.50;;
70667;SDS011;58242;51.250;-1.118;2022-11-20T10:25:57;7.07;;;4.18;;
70667;SDS011;58242;51.250;-1.118;2022-11-20T10:33:50;6.00;;;3.53;;
70667;SDS011;58242;51.250;-1.118;2022-11-20T10:36:27;7.40;;;4.57;;
70667;SDS011;58242;51.250;-1.118;2022-11-20T10:38:59;6.05;;;3.53;;
70667;SDS011;58242;51.250;-1.118;2022-11-20T10:41:30;7.18;;;3.70;;
70667;SDS011;58242;51.250;-1.118;2022-11-20T10:44:03;9.02;;;4.10;;
70667;SDS011;58242;51.250;-1.118;2022-11-20T10:46:49;13.20;;;4.65;;
70667;SDS011;58242;51.250;-1.118;2022-11-20T10:49:15;8.38;;;4.63;;
70667;SDS011;58242;51.250;-1.118;2022-11-20T11:00:06;11.15;;;5.38;;
70667;SDS011;58242;51.250;-1.118;2022-11-20T11:05:16;16.70;;;5.25;;
70667;SDS011;58242;51.250;-1.118;2022-11-20T11:07:52;7.68;;;4.78;;
70667;SDS011;58242;51.250;-1.118;2022-11-20T11:10:24;11.95;;;4.80;;
70667;SDS011;58242;51.250;-1.118;2022-11-20T11:12:56;9.05;;;4.15;;
70667;SDS011;58242;51.250;-1.118;2022-11-20T11:15:28;7.40;;;4.28;;
70667;SDS011;58242;51.250;-1.118;2022-11-20T11:18:04;6.70;;;4.45;;
70667;SDS011;58242;51.250;-1.118;2022-11-20T11:20:30;15.90;;;7.10;;
70667;SDS011;58242;51.250;-1.118;2022-11-20T11:22:57;16.40;;;10.93;;
70667;SDS011;58242;51.250;-1.118;2022-11-20T11:25:25;13.80;;;8.15;;
70667;SDS011;58242;51.250;-1.118;2022-11-20T11:27:58;15.35;;;7.63;;
70667;SDS011;58242;51.250;-1.118;2022-11-20T11:32:50;16.08;;;5.57;;
70667;SDS011;58242;51.250;-1.118;2022-11-20T11:35:20;11.05;;;6.88;;
70667;SDS011;58242;51.250;-1.118;2022-11-20T11:37:45;8.98;;;6.22;;
70667;SDS011;58242;51.250;-1.118;2022-11-20T11:40:12;13.15;;;5.93;;
70667;SDS011;58242;51.250;-1.118;2022-11-20T11:42:47;11.80;;;5.50;;
70667;SDS011;58242;51.250;-1.118;2022-11-20T11:45:17;11.30;;;4.63;;
70667;SDS011;58242;51.250;-1.118;2022-11-20T11:47:44;12.70;;;4.85;;
70667;SDS011;58242;51.250;-1.118;2022-11-20T11:52:43;7.90;;;4.30;;
70667;SDS011;58242;51.250;-1.118;2022-11-20T11:55:16;13.30;;;5.63;;
70667;SDS011;58242;51.250;-1.118;2022-11-20T11:58:14;9.70;;;5.10;;
70667;SDS011;58242;51.250;-1.118;2022-11-20T12:00:39;8.98;;;4.47;;
70667;SDS011;58242;51.250;-1.118;2022-11-20T12:03:31;10.43;;;4.18;;
70667;SDS011;58242;51.250;-1.118;2022-11-20T12:06:01;15.68;;;5.47;;
70667;SDS011;58242;51.250;-1.118;2022-11-20T12:11:29;13.15;;;5.38;;
70667;SDS011;58242;51.250;-1.118;2022-11-20T12:13:58;13.63;;;5.30;;
70667;SDS011;58242;51.250;-1.118;2022-11-20T12:16:29;11.35;;;4.97;;
70667;SDS011;58242;51.250;-1.118;2022-11-20T12:18:58;12.73;;;5.60;;
70667;SDS011;58242;51.250;-1.118;2022-11-20T12:26:18;6.40;;;4.20;;
70667;SDS011;58242;51.250;-1.118;2022-11-20T12:31:45;14.02;;;5.55;;
70667;SDS011;58242;51.250;-1.118;2022-11-20T12:39:49;14.07;;;6.97;;
70667;SDS011;58242;51.250;-1.118;2022-11-20T12:48:17;10.85;;;7.00;;
70667;SDS011;58242;51.250;-1.118;2022-11-20T13:01:44;10.90;;;5.03;;
70667;SDS011;58242;51.250;-1.118;2022-11-20T13:06:58;7.13;;;5.43;;
70667;SDS011;58242;51.250;-1.118;2022-11-20T13:09:30;8.82;;;5.07;;
70667;SDS011;58242;51.250;-1.118;2022-11-20T13:14:46;10.02;;;5.20;;
70667;SDS011;58242;51.250;-1.118;2022-11-20T13:17:37;6.28;;;4.15;;
70667;SDS011;58242;51.250;-1.118;2022-11-20T13:20:15;6.35;;;3.88;;
70667;SDS011;58242;51.250;-1.118;2022-11-20T13:22:52;6.70;;;3.92;;
70667;SDS011;58242;51.250;-1.118;2022-11-20T13:25:26;9.55;;;4.05;;
70667;SDS011;58242;51.250;-1.118;2022-11-20T13:27:53;9.23;;;3.97;;
70667;SDS011;58242;51.250;-1.118;2022-11-20T13:30:21;7.45;;;3.67;;
70667;SDS011;58242;51.250;-1.118;2022-11-20T13:32:48;9.52;;;4.70;;
70667;SDS011;58242;51.250;-1.118;2022-11-20T13:35:23;12.07;;;4.47;;
70667;SDS011;58242;51.250;-1.118;2022-11-20T13:37:58;5.28;;;3.70;;
70667;SDS011;58242;51.250;-1.118;2022-11-20T13:40:51;6.13;;;3.72;;
70667;SDS011;58242;51.250;-1.118;2022-11-20T13:46:13;13.30;;;4.93;;
70667;SDS011;58242;51.250;-1.118;2022-11-20T13:48:41;7.38;;;4.07;;
70667;SDS011;58242;51.250;-1.118;2022-11-20T13:51:13;6.60;;;4.50;;
70667;SDS011;58242;51.250;-1.118;2022-11-20T14:01:29;11.80;;;5.35;;
70667;SDS011;58242;51.250;-1.118;2022-11-20T14:03:56;8.35;;;3.65;;
70667;SDS011;58242;51.250;-1.118;2022-11-20T14:06:29;9.82;;;4.40;;
70667;SDS011;58242;51.250;-1.118;2022-11-20T14:08:56;10.60;;;4.28;;
70667;SDS011;58242;51.250;-1.118;2022-11-20T14:11:26;9.13;;;4.53;;
70667;SDS011;58242;51.250;-1.118;2022-11-20T14:16:29;7.40;;;3.80;;
70667;SDS011;58242;51.250;-1.118;2022-11-20T14:19:22;11.30;;;5.60;;
70667;SDS011;58242;51.250;-1.118;2022-11-20T14:21:51;10.87;;;5.90;;
70667;SDS011;58242;51.250;-1.118;2022-11-20T14:24:19;10.02;;;5.18;;
70667;SDS011;58242;51.250;-1.118;2022-11-20T14:26:46;5.55;;;4.20;;
70667;SDS011;58242;51.250;-1.118;2022-11-20T14:29:22;7.55;;;3.80;;
70667;SDS011;58242;51.250;-1.118;2022-11-20T14:31:52;6.47;;;4.28;;
70667;SDS011;58242;51.250;-1.118;2022-11-20T14:34:23;6.15;;;3.80;;
70667;SDS011;58242;51.250;-1.118;2022-11-20T14:36:52;5.25;;;4.38;;
70667;SDS011;58242;51.250;-1.118;2022-11-20T14:39:21;6.35;;;4.30;;
70667;SDS011;58242;51.250;-1.118;2022-11-20T14:41:50;10.20;;;4.63;;
70667;SDS011;58242;51.250;-1.118;2022-11-20T14:44:17;6.72;;;4.20;;
70667;SDS011;58242;51.250;-1.118;2022-11-20T14:46:44;6.95;;;3.38;;
70667;SDS011;58242;51.250;-1.118;2022-11-20T14:49:10;3.75;;;2.97;;
70667;SDS011;58242;51.250;-1.118;2022-11-20T14:51:37;3.13;;;3.03;;
70667;SDS011;58242;51.250;-1.118;2022-11-20T14:54:11;2.75;;;2.40;;
70667;SDS011;58242;51.250;-1.118;2022-11-20T14:56:40;4.75;;;3.20;;
70667;SDS011;58242;51.250;-1.118;2022-11-20T14:59:07;5.80;;;3.85;;
70667;SDS011;58242;51.250;-1.118;2022-11-20T15:01:33;4.70;;;3.97;;
70667;SDS011;58242;51.250;-1.118;2022-11-20T15:04:20;5.60;;;3.72;;
70667;SDS011;58242;51.250;-1.118;2022-11-20T15:06:51;5.32;;;4.60;;
70667;SDS011;58242;51.250;-1.118;2022-11-20T15:09:22;8.82;;;6.35;;
70667;SDS011;58242;51.250;-1.118;2022-11-20T15:11:55;9.07;;;6.38;;
70667;SDS011;58242;51.250;-1.118;2022-11-20T15:14:23;8.80;;;5.68;;
70667;SDS011;58242;51.250;-1.118;2022-11-20T15:16:50;4.20;;;3.90;;
70667;SDS011;58242;51.250;-1.118;2022-11-20T15:19:17;4.05;;;3.70;;
70667;SDS011;58242;51.250;-1.118;2022-11-20T15:21:46;6.25;;;4.00;;
70667;SDS011;58242;51.250;-1.118;2022-11-20T15:24:12;5.07;;;3.75;;
70667;SDS011;58242;51.250;-1.118;2022-11-20T15:26:37;7.22;;;3.88;;
70667;SDS011;58242;51.250;-1.118;2022-11-20T15:29:05;8.88;;;4.60;;
70667;SDS011;58242;51.250;-1.118;2022-11-20T15:31:36;6.85;;;4.20;;
70667;SDS011;58242;51.250;-1.118;2022-11-20T15:34:02;7.30;;;3.90;;
70667;SDS011;58242;51.250;-1.118;2022-11-20T15:36:28;4.57;;;3.17;;
70667;SDS011;58242;51.250;-1.118;2022-11-20T15:38:53;3.72;;;3.13;;
70667;SDS011;58242;51.250;-1.118;2022-11-20T15:41:18;3.58;;;3.22;;
70667;SDS011;58242;51.250;-1.118;2022-11-20T15:43:44;3.15;;;2.92;;
70667;SDS011;58242;51.250;-1.118;2022-11-20T15:46:11;2.80;;;2.58;;
70667;SDS011;58242;51.250;-1.118;2022-11-20T15:48:39;2.80;;;2.60;;
70667;SDS011;58242;51.250;-1.118;2022-11-20T15:53:36;3.63;;;2.55;;
70667;SDS011;58242;51.250;-1.118;2022-11-20T15:56:02;3.60;;;3.30;;
70667;SDS011;58242;51.250;-1.118;2022-11-20T15:58:28;5.60;;;4.18;;
70667;SDS011;58242;51.250;-1.118;2022-11-20T16:00:53;3.88;;;3.58;;
70667;SDS011;58242;51.250;-1.118;2022-11-20T16:03:19;4.30;;;3.47;;
70667;SDS011;58242;51.250;-1.118;2022-11-20T16:05:44;3.72;;;3.53;;
70667;SDS011;58242;51.250;-1.118;2022-11-20T16:08:10;3.13;;;2.92;;
70667;SDS011;58242;51.250;-1.118;2022-11-20T16:10:36;2.95;;;2.72;;
70667;SDS011;58242;51.250;-1.118;2022-11-20T16:13:01;2.60;;;2.40;;
70667;SDS011;58242;51.250;-1.118;2022-11-20T16:15:47;3.85;;;3.00;;
70667;SDS011;58242;51.250;-1.118;2022-11-20T16:18:18;2.70;;;2.60;;
70667;SDS011;58242;51.250;-1.118;2022-11-20T16:20:48;3.63;;;3.08;;
70667;SDS011;58242;51.250;-1.118;2022-11-20T16:23:16;4.13;;;3.38;;
70667;SDS011;58242;51.250;-1.118;2022-11-20T16:25:42;3.33;;;2.88;;
70667;SDS011;58242;51.250;-1.118;2022-11-20T16:28:08;2.92;;;2.72;;
70667;SDS011;58242;51.250;-1.118;2022-11-20T16:30:34;6.60;;;3.85;;
70667;SDS011;58242;51.250;-1.118;2022-11-20T16:33:00;6.43;;;3.45;;